Time;durP1;ratioP1;P1;durP2;ratioP2;P2;SDS_P1;SDS_P2;PMS_P1;PMS_P2;Temp;Humidity;BMP_temperature;BMP_pressure;BME280_temperature;BME280_humidity;BME280_pressure;Samples;Min_cycle;Max_cycle;Signal;HPM_P1;HPM_P2
2020/12/03 00:02:13;;;;;;;68.67;37.23;;;;;;;;;;5077508;28;20216;-64
2020/12/03 00:04:38;;;;;;;69.83;40.90;;;;;;;;;;5077458;28;20252;-64
2020/12/03 00:07:03;;;;;;;69.73;40.50;;;;;;;;;;5077593;28;20769;-64
2020/12/03 00:09:29;;;;;;;63.30;38.60;;;;;;;;;;5077039;28;20244;-64
2020/12/03 00:11:56;;;;;;;66.17;38.20;;;;;;;;;;5077180;28;20237;-63
2020/12/03 00:14:21;;;;;;;63.93;39.27;;;;;;;;;;5077472;28;20480;-63
2020/12/03 00:16:48;;;;;;;70.80;41.00;;;;;;;;;;5077083;28;20488;-64
2020/12/03 00:19:14;;;;;;;66.93;39.60;;;;;;;;;;5077255;28;20427;-63
2020/12/03 00:21:41;;;;;;;64.63;38.90;;;;;;;;;;5077534;28;20399;-63
2020/12/03 00:24:07;;;;;;;67.77;39.43;;;;;;;;;;5077296;28;20179;-64
2020/12/03 00:26:33;;;;;;;70.87;39.60;;;;;;;;;;5077133;28;20388;-64
2020/12/03 00:28:58;;;;;;;67.53;40.30;;;;;;;;;;5077677;28;20490;-64
2020/12/03 00:31:24;;;;;;;64.57;40.13;;;;;;;;;;5077132;28;20276;-64
2020/12/03 00:33:50;;;;;;;69.27;41.63;;;;;;;;;;5077159;28;20165;-64
2020/12/03 00:36:15;;;;;;;59.67;37.97;;;;;;;;;;5077502;28;20388;-64
2020/12/03 00:38:40;;;;;;;68.03;40.77;;;;;;;;;;5078110;28;20168;-64
2020/12/03 00:41:05;;;;;;;65.53;38.23;;;;;;;;;;5081417;28;20181;-64
2020/12/03 00:43:31;;;;;;;63.00;39.27;;;;;;;;;;5081642;28;20165;-64
2020/12/03 00:45:56;;;;;;;51.92;27.33;;;;;;;;;;5080904;28;20204;-61
2020/12/03 00:48:21;;;;;;;72.18;42.72;;;;;;;;;;5081036;28;20180;-64
2020/12/03 00:50:47;;;;;;;60.67;39.43;;;;;;;;;;5062877;28;20242;-68
2020/12/03 00:53:13;;;;;;;59.47;38.97;;;;;;;;;;5060799;28;20232;-66
2020/12/03 00:55:38;;;;;;;65.10;40.70;;;;;;;;;;5060830;28;20396;-68
2020/12/03 00:58:03;;;;;;;68.53;39.27;;;;;;;;;;5061098;28;20421;-66
2020/12/03 01:00:29;;;;;;;61.63;39.80;;;;;;;;;;5060672;28;20154;-67
2020/12/03 01:02:54;;;;;;;64.40;39.87;;;;;;;;;;5060688;28;20542;-67
2020/12/03 01:05:19;;;;;;;62.73;38.53;;;;;;;;;;5061140;28;20162;-67
2020/12/03 01:07:44;;;;;;;65.00;38.40;;;;;;;;;;5060519;28;20172;-67
2020/12/03 01:10:29;;;;;;;62.80;38.80;;;;;;;;;;5060675;28;20224;-67
2020/12/03 01:12:54;;;;;;;70.33;41.17;;;;;;;;;;5060664;28;20252;-67
2020/12/03 01:15:20;;;;;;;67.03;39.80;;;;;;;;;;5060551;28;20414;-67
2020/12/03 01:17:45;;;;;;;65.00;38.73;;;;;;;;;;5060894;28;20925;-66
2020/12/03 01:20:12;;;;;;;59.10;35.73;;;;;;;;;;5060402;28;20260;-65
2020/12/03 01:22:37;;;;;;;63.60;39.53;;;;;;;;;;5060267;28;20185;-66
2020/12/03 01:25:06;;;;;;;62.20;37.27;;;;;;;;;;5060795;28;20471;-65
2020/12/03 01:27:31;;;;;;;63.03;38.80;;;;;;;;;;5060304;28;20740;-66
2020/12/03 01:29:56;;;;;;;63.80;40.37;;;;;;;;;;5060222;28;20441;-66
2020/12/03 01:32:21;;;;;;;59.13;37.73;;;;;;;;;;5060503;28;20182;-67
2020/12/03 01:34:47;;;;;;;61.37;38.27;;;;;;;;;;5060392;28;20181;-67
2020/12/03 01:37:15;;;;;;;57.63;37.00;;;;;;;;;;5060139;28;20162;-66
2020/12/03 01:39:40;;;;;;;61.80;37.87;;;;;;;;;;5060412;28;20158;-67
2020/12/03 01:42:05;;;;;;;61.67;37.70;;;;;;;;;;5060236;28;20415;-66
2020/12/03 01:44:47;;;;;;;64.80;38.80;;;;;;;;;;5060001;28;20749;-67
2020/12/03 01:47:21;;;;;;;64.97;38.70;;;;;;;;;;5059974;28;20168;-67
2020/12/03 01:49:46;;;;;;;59.37;39.20;;;;;;;;;;5059312;28;20411;-66
2020/12/03 01:52:12;;;;;;;57.00;37.60;;;;;;;;;;5059263;28;20448;-67
2020/12/03 01:54:37;;;;;;;58.77;37.37;;;;;;;;;;5059827;28;20186;-67
2020/12/03 01:57:05;;;;;;;60.10;37.15;;;;;;;;;;5059859;28;20178;-66
2020/12/03 01:59:37;;;;;;;61.17;38.53;;;;;;;;;;5059706;28;20170;-66
2020/12/03 02:02:02;;;;;;;65.70;38.43;;;;;;;;;;5059639;28;20490;-66
2020/12/03 02:04:28;;;;;;;57.40;36.03;;;;;;;;;;5059742;28;20439;-66
2020/12/03 02:07:13;;;;;;;59.57;37.20;;;;;;;;;;5059457;28;20173;-66
2020/12/03 02:09:38;;;;;;;55.40;36.57;;;;;;;;;;5059385;28;20217;-68
2020/12/03 02:12:04;;;;;;;60.40;36.97;;;;;;;;;;5059396;28;20725;-66
2020/12/03 02:14:29;;;;;;;63.33;39.17;;;;;;;;;;5059769;28;20173;-66
2020/12/03 02:16:54;;;;;;;58.30;36.97;;;;;;;;;;5059296;28;20172;-67
2020/12/03 02:19:22;;;;;;;61.40;39.50;;;;;;;;;;5059330;28;20244;-67
2020/12/03 02:22:02;;;;;;;58.67;37.07;;;;;;;;;;5059466;28;20621;-67
2020/12/03 02:24:27;;;;;;;57.50;34.70;;;;;;;;;;5059151;28;20702;-66
2020/12/03 02:26:53;;;;;;;57.47;37.73;;;;;;;;;;5059223;28;20403;-66
2020/12/03 02:29:19;;;;;;;59.73;38.30;;;;;;;;;;5059163;28;20396;-66
2020/12/03 02:31:44;;;;;;;61.33;38.87;;;;;;;;;;5059140;28;20351;-66
2020/12/03 02:34:10;;;;;;;60.00;38.30;;;;;;;;;;5059355;28;20827;-66
2020/12/03 02:36:35;;;;;;;57.83;36.97;;;;;;;;;;5058868;28;20603;-67
2020/12/03 02:39:00;;;;;;;63.20;38.40;;;;;;;;;;5058886;28;20257;-67
2020/12/03 02:41:25;;;;;;;58.03;36.67;;;;;;;;;;5059262;28;20559;-67
2020/12/03 02:43:50;;;;;;;60.90;38.13;;;;;;;;;;5058990;28;20170;-66
2020/12/03 02:46:16;;;;;;;57.10;37.67;;;;;;;;;;5058759;28;20173;-67
2020/12/03 02:48:41;;;;;;;56.27;34.70;;;;;;;;;;5059234;28;20165;-66
2020/12/03 02:51:06;;;;;;;57.00;36.07;;;;;;;;;;5058595;28;20189;-66
2020/12/03 02:53:31;;;;;;;57.25;36.55;;;;;;;;;;5058651;28;20161;-66
2020/12/03 02:55:56;;;;;;;56.95;36.58;;;;;;;;;;5058939;28;20196;-68
2020/12/03 02:58:21;;;;;;;56.50;36.47;;;;;;;;;;5058656;28;20169;-66
2020/12/03 03:00:47;;;;;;;61.17;38.27;;;;;;;;;;5058586;28;20546;-66
2020/12/03 03:03:12;;;;;;;59.37;36.77;;;;;;;;;;5058588;28;20161;-67
2020/12/03 03:05:37;;;;;;;54.20;35.43;;;;;;;;;;5058558;28;20227;-67
2020/12/03 03:08:02;;;;;;;64.87;38.70;;;;;;;;;;5060166;28;20164;-68
2020/12/03 03:10:27;;;;;;;57.23;35.50;;;;;;;;;;5060281;28;20228;-67
2020/12/03 03:12:52;;;;;;;58.80;36.70;;;;;;;;;;5059170;28;20406;-67
2020/12/03 03:15:18;;;;;;;53.15;34.55;;;;;;;;;;5058639;28;20161;-67
2020/12/03 03:17:43;;;;;;;57.23;34.47;;;;;;;;;;5058200;28;20211;-67
2020/12/03 03:20:09;;;;;;;52.70;33.77;;;;;;;;;;5058190;28;20172;-68
2020/12/03 03:22:34;;;;;;;56.70;34.97;;;;;;;;;;5058561;28;20212;-67
2020/12/03 03:24:59;;;;;;;54.00;35.07;;;;;;;;;;5058182;28;20165;-66
2020/12/03 03:27:24;;;;;;;57.78;36.55;;;;;;;;;;5058032;28;20173;-67
2020/12/03 03:29:49;;;;;;;53.75;35.70;;;;;;;;;;5058300;28;20170;-66
2020/12/03 03:32:14;;;;;;;58.67;35.33;;;;;;;;;;5057936;28;20216;-67
2020/12/03 03:34:39;;;;;;;52.60;35.43;;;;;;;;;;5057818;28;20169;-67
2020/12/03 03:37:05;;;;;;;50.83;34.33;;;;;;;;;;5058121;28;20166;-67
2020/12/03 03:39:30;;;;;;;55.33;34.83;;;;;;;;;;5057920;28;20181;-67
2020/12/03 03:41:56;;;;;;;57.72;35.70;;;;;;;;;;5057909;28;20451;-67
2020/12/03 03:44:21;;;;;;;51.00;33.40;;;;;;;;;;5058170;28;20166;-66
2020/12/03 03:46:47;;;;;;;55.87;36.17;;;;;;;;;;5066819;28;20694;-67
2020/12/03 03:49:12;;;;;;;58.90;37.30;;;;;;;;;;5077502;28;20164;-67
2020/12/03 03:51:38;;;;;;;58.20;34.60;;;;;;;;;;5077926;28;20434;-67
2020/12/03 03:54:03;;;;;;;54.67;34.33;;;;;;;;;;5077229;28;20263;-66
2020/12/03 03:56:28;;;;;;;59.50;36.40;;;;;;;;;;5064244;28;20180;-66
2020/12/03 03:58:53;;;;;;;52.70;32.72;;;;;;;;;;5065741;28;20171;-67
2020/12/03 04:01:18;;;;;;;49.85;32.08;;;;;;;;;;5067356;28;20498;-66
2020/12/03 04:03:43;;;;;;;51.53;33.03;;;;;;;;;;5065869;28;20166;-67
2020/12/03 04:06:09;;;;;;;50.70;33.37;;;;;;;;;;5070256;28;20157;-67
2020/12/03 04:08:34;;;;;;;56.60;33.40;;;;;;;;;;5097611;28;20251;-66
2020/12/03 04:10:59;;;;;;;69.43;36.50;;;;;;;;;;5097402;28;20432;-67
2020/12/03 04:13:25;;;;;;;54.70;34.60;;;;;;;;;;5097089;28;20215;-66
2020/12/03 04:15:50;;;;;;;57.23;34.70;;;;;;;;;;5097616;28;20205;-67
2020/12/03 04:18:16;;;;;;;58.10;34.50;;;;;;;;;;5097531;28;20792;-68
2020/12/03 04:20:42;;;;;;;53.73;34.77;;;;;;;;;;5097776;28;20420;-68
2020/12/03 04:23:08;;;;;;;55.80;33.97;;;;;;;;;;5097329;28;20192;-68
2020/12/03 04:25:33;;;;;;;54.17;34.20;;;;;;;;;;5097427;28;20398;-66
2020/12/03 04:27:58;;;;;;;55.88;34.05;;;;;;;;;;5097750;28;20427;-67
2020/12/03 04:30:24;;;;;;;59.57;34.17;;;;;;;;;;5097218;28;20172;-68
2020/12/03 04:32:49;;;;;;;58.30;34.57;;;;;;;;;;5097323;28;20152;-67
2020/12/03 04:35:17;;;;;;;54.03;33.67;;;;;;;;;;5097712;28;20171;-66
2020/12/03 04:37:43;;;;;;;46.83;31.87;;;;;;;;;;5097226;28;20168;-66
2020/12/03 04:40:18;;;;;;;52.93;33.70;;;;;;;;;;5097028;28;20648;-67
2020/12/03 04:42:43;;;;;;;59.80;35.60;;;;;;;;;;5097094;28;20435;-68
2020/12/03 04:45:24;;;;;;;64.60;36.10;;;;;;;;;;5097299;28;20413;-66
2020/12/03 04:48:01;;;;;;;52.47;35.10;;;;;;;;;;5096965;28;20183;-67
2020/12/03 04:50:39;;;;;;;54.60;34.53;;;;;;;;;;5097175;28;20493;-66
2020/12/03 04:53:13;;;;;;;53.57;33.63;;;;;;;;;;5097229;28;20416;-66
2020/12/03 04:55:47;;;;;;;49.87;29.80;;;;;;;;;;5097231;28;20691;-67
2020/12/03 04:58:12;;;;;;;48.50;32.90;;;;;;;;;;5097009;28;20402;-66
2020/12/03 05:00:43;;;;;;;57.33;34.40;;;;;;;;;;5097079;28;20394;-66
2020/12/03 05:03:32;;;;;;;56.10;30.27;;;;;;;;;;5097280;28;20259;-67
2020/12/03 05:06:12;;;;;;;54.37;33.87;;;;;;;;;;5097068;28;20390;-67
2020/12/03 05:08:52;;;;;;;53.67;34.13;;;;;;;;;;5096752;28;20466;-67
2020/12/03 05:11:23;;;;;;;51.70;33.07;;;;;;;;;;5097066;28;20454;-67
2020/12/03 05:13:50;;;;;;;53.40;34.27;;;;;;;;;;5097026;28;20402;-67
2020/12/03 05:16:29;;;;;;;53.00;34.50;;;;;;;;;;5096956;28;20704;-67
2020/12/03 05:18:57;;;;;;;54.33;34.50;;;;;;;;;;5097014;28;20447;-67
2020/12/03 05:21:27;;;;;;;53.23;35.20;;;;;;;;;;5096877;28;20405;-66
2020/12/03 05:23:53;;;;;;;54.70;33.90;;;;;;;;;;5096957;28;20390;-67
2020/12/03 05:26:21;;;;;;;57.70;34.63;;;;;;;;;;5100262;28;20514;-68
2020/12/03 05:28:54;;;;;;;58.33;35.03;;;;;;;;;;5101015;28;20171;-66
2020/12/03 05:31:26;;;;;;;54.30;32.80;;;;;;;;;;5100562;28;20542;-68
2020/12/03 05:33:52;;;;;;;50.53;31.80;;;;;;;;;;5100554;28;20823;-67
2020/12/03 05:36:18;;;;;;;56.07;33.90;;;;;;;;;;5100280;28;20398;-67
2020/12/03 05:38:43;;;;;;;52.30;34.13;;;;;;;;;;5100452;28;20253;-67
2020/12/03 05:41:10;;;;;;;51.27;35.07;;;;;;;;;;5100797;28;20414;-67
2020/12/03 05:43:35;;;;;;;49.43;31.50;;;;;;;;;;5100451;28;20200;-66
2020/12/03 05:46:02;;;;;;;53.67;30.63;;;;;;;;;;5100269;28;20422;-67
2020/12/03 05:48:27;;;;;;;56.47;34.67;;;;;;;;;;5100642;28;20157;-67
2020/12/03 05:50:54;;;;;;;51.80;33.03;;;;;;;;;;5100214;28;20839;-67
2020/12/03 05:53:27;;;;;;;51.43;33.60;;;;;;;;;;5100214;28;20161;-67
2020/12/03 05:56:09;;;;;;;55.03;34.80;;;;;;;;;;5100280;28;20451;-66
2020/12/03 05:58:34;;;;;;;50.63;33.23;;;;;;;;;;5100102;28;20398;-67
2020/12/03 06:01:07;;;;;;;56.17;34.30;;;;;;;;;;5099938;28;20405;-67
2020/12/03 06:03:51;;;;;;;55.10;34.50;;;;;;;;;;5100145;28;20538;-66
2020/12/03 06:06:34;;;;;;;50.83;33.33;;;;;;;;;;5099862;28;20661;-68
2020/12/03 06:09:18;;;;;;;54.07;33.70;;;;;;;;;;5099696;28;20873;-67
2020/12/03 06:11:46;;;;;;;54.97;33.53;;;;;;;;;;5099669;28;20453;-66
2020/12/03 06:14:21;;;;;;;54.40;34.43;;;;;;;;;;5099993;28;20406;-68
2020/12/03 06:16:46;;;;;;;53.77;34.93;;;;;;;;;;5099765;28;20494;-67
2020/12/03 06:19:18;;;;;;;53.45;33.80;;;;;;;;;;5099615;28;20456;-67
2020/12/03 06:21:58;;;;;;;54.97;35.10;;;;;;;;;;5099459;28;20180;-68
2020/12/03 06:24:26;;;;;;;55.60;35.80;;;;;;;;;;5099566;28;20402;-67
2020/12/03 06:27:00;;;;;;;54.90;32.70;;;;;;;;;;5099329;28;20425;-67
2020/12/03 06:29:42;;;;;;;55.23;33.63;;;;;;;;;;5099419;28;20414;-68
2020/12/03 06:32:13;;;;;;;56.80;33.97;;;;;;;;;;5099182;28;20870;-67
2020/12/03 06:34:43;;;;;;;55.07;34.67;;;;;;;;;;5099331;28;20713;-68
2020/12/03 06:37:33;;;;;;;60.47;35.87;;;;;;;;;;5098251;28;20451;-68
2020/12/03 06:40:03;;;;;;;53.80;35.27;;;;;;;;;;5099100;28;20409;-67
2020/12/03 06:42:35;;;;;;;54.90;33.90;;;;;;;;;;5099352;28;20406;-67
2020/12/03 06:45:09;;;;;;;58.17;35.70;;;;;;;;;;5099155;28;20472;-68
2020/12/03 06:47:53;;;;;;;55.07;36.10;;;;;;;;;;5099066;28;20403;-69
2020/12/03 06:50:41;;;;;;;55.93;35.70;;;;;;;;;;5100113;28;20386;-68
2020/12/03 06:53:10;;;;;;;51.40;33.70;;;;;;;;;;5100880;28;20410;-67
2020/12/03 06:55:47;;;;;;;56.30;33.17;;;;;;;;;;5099603;28;20493;-68
2020/12/03 06:58:12;;;;;;;60.83;37.53;;;;;;;;;;5098636;28;20417;-67
2020/12/03 07:00:56;;;;;;;50.78;35.30;;;;;;;;;;5098760;28;20661;-67
2020/12/03 07:03:47;;;;;;;55.90;35.47;;;;;;;;;;5098869;28;20165;-67
2020/12/03 07:06:30;;;;;;;55.90;33.73;;;;;;;;;;5098566;28;20477;-67
2020/12/03 07:08:55;;;;;;;55.20;34.30;;;;;;;;;;5098592;28;20446;-67
2020/12/03 07:11:39;;;;;;;54.15;34.97;;;;;;;;;;5098283;28;20507;-68
2020/12/03 07:14:04;;;;;;;53.30;33.40;;;;;;;;;;5098356;28;20165;-67
2020/12/03 07:16:48;;;;;;;61.22;34.13;;;;;;;;;;5098172;28;20406;-67
2020/12/03 07:19:41;;;;;;;58.70;35.40;;;;;;;;;;5098308;28;20168;-67
2020/12/03 07:22:15;;;;;;;55.80;33.63;;;;;;;;;;5098164;28;20863;-67
2020/12/03 07:24:42;;;;;;;56.90;34.43;;;;;;;;;;5098392;28;20812;-68
2020/12/03 07:27:10;;;;;;;53.83;35.13;;;;;;;;;;5098085;28;20403;-67
2020/12/03 07:29:36;;;;;;;55.23;34.67;;;;;;;;;;5098093;28;20406;-68
2020/12/03 07:32:03;;;;;;;57.28;36.47;;;;;;;;;;5098374;28;20952;-67
2020/12/03 07:34:28;;;;;;;62.40;35.00;;;;;;;;;;5098078;28;20554;-67
2020/12/03 07:37:07;;;;;;;63.00;37.60;;;;;;;;;;5097718;28;20417;-66
2020/12/03 07:39:35;;;;;;;56.13;35.53;;;;;;;;;;5097751;28;20175;-67
2020/12/03 07:42:15;;;;;;;53.93;33.97;;;;;;;;;;5097796;28;20819;-68
2020/12/03 07:44:44;;;;;;;56.70;34.97;;;;;;;;;;5097652;28;20867;-67
2020/12/03 07:47:15;;;;;;;49.57;28.80;;;;;;;;;;5097811;28;21489;-68
2020/12/03 07:49:42;;;;;;;60.13;35.73;;;;;;;;;;5097097;28;20511;-68
2020/12/03 07:52:18;;;;;;;51.47;33.03;;;;;;;;;;5097851;28;20502;-67
2020/12/03 07:54:43;;;;;;;59.83;35.70;;;;;;;;;;5097957;28;20402;-68
2020/12/03 07:57:22;;;;;;;54.80;32.88;;;;;;;;;;5097626;28;20451;-67
2020/12/03 07:59:47;;;;;;;55.57;33.53;;;;;;;;;;5097771;28;20296;-67
2020/12/03 08:02:31;;;;;;;57.93;33.47;;;;;;;;;;5097762;28;20428;-67
2020/12/03 08:04:56;;;;;;;55.53;32.60;;;;;;;;;;5097600;28;20211;-68
2020/12/03 08:07:23;;;;;;;50.55;32.75;;;;;;;;;;5097643;28;20414;-68
2020/12/03 08:09:49;;;;;;;52.73;32.93;;;;;;;;;;5097522;28;20231;-68
2020/12/03 08:12:18;;;;;;;52.40;32.20;;;;;;;;;;5097536;28;20499;-68
2020/12/03 08:14:47;;;;;;;52.47;33.17;;;;;;;;;;5097840;28;20585;-67
2020/12/03 08:17:18;;;;;;;46.57;29.40;;;;;;;;;;5097316;28;20417;-67
2020/12/03 08:19:45;;;;;;;52.70;32.63;;;;;;;;;;5097371;28;20641;-67
2020/12/03 08:22:27;;;;;;;48.63;31.97;;;;;;;;;;5097535;28;20870;-68
2020/12/03 08:25:09;;;;;;;54.17;34.77;;;;;;;;;;5097458;28;20407;-68
2020/12/03 08:27:35;;;;;;;48.80;28.47;;;;;;;;;;5097455;28;20418;-68
2020/12/03 08:30:00;;;;;;;48.70;32.83;;;;;;;;;;5097324;28;20490;-68
2020/12/03 08:32:26;;;;;;;58.67;35.27;;;;;;;;;;5097188;28;20569;-67
2020/12/03 08:34:51;;;;;;;46.23;29.17;;;;;;;;;;5097507;28;20183;-66
2020/12/03 08:37:17;;;;;;;57.30;32.87;;;;;;;;;;5097275;28;20403;-68
2020/12/03 08:39:43;;;;;;;53.53;34.83;;;;;;;;;;5097309;28;20250;-68
2020/12/03 08:42:10;;;;;;;51.83;33.20;;;;;;;;;;5097522;28;20160;-67
2020/12/03 08:44:36;;;;;;;51.60;31.27;;;;;;;;;;5097224;28;20488;-67
2020/12/03 08:47:05;;;;;;;52.20;31.90;;;;;;;;;;5097168;28;20445;-67
2020/12/03 08:49:30;;;;;;;46.77;32.70;;;;;;;;;;5097333;28;20164;-68
2020/12/03 08:51:58;;;;;;;50.40;34.13;;;;;;;;;;5097095;28;20458;-68
2020/12/03 08:54:24;;;;;;;48.03;30.50;;;;;;;;;;5097198;28;20530;-67
2020/12/03 08:56:53;;;;;;;49.87;32.20;;;;;;;;;;5097255;28;20493;-68
2020/12/03 08:59:20;;;;;;;47.57;30.23;;;;;;;;;;5097089;28;20812;-67
2020/12/03 09:01:48;;;;;;;52.47;32.50;;;;;;;;;;5101120;28;20505;-67
2020/12/03 09:04:16;;;;;;;51.20;31.30;;;;;;;;;;5101447;28;20474;-67
2020/12/03 09:06:46;;;;;;;56.57;32.13;;;;;;;;;;5100789;28;20795;-67
2020/12/03 09:09:11;;;;;;;51.20;30.83;;;;;;;;;;5100958;28;20466;-68
2020/12/03 09:11:37;;;;;;;55.07;33.93;;;;;;;;;;5101166;28;20460;-67
2020/12/03 09:14:03;;;;;;;49.90;33.00;;;;;;;;;;5100172;28;20171;-65
2020/12/03 09:16:29;;;;;;;50.17;33.17;;;;;;;;;;5082766;28;20181;-67
2020/12/03 09:18:54;;;;;;;52.10;32.40;;;;;;;;;;5080704;28;20505;-66
2020/12/03 09:21:24;;;;;;;55.10;35.00;;;;;;;;;;5080072;28;20403;-65
2020/12/03 09:23:50;;;;;;;54.10;31.80;;;;;;;;;;5080652;28;20555;-66
2020/12/03 09:26:21;;;;;;;48.37;31.07;;;;;;;;;;5080634;28;20482;-66
2020/12/03 09:28:48;;;;;;;46.87;30.80;;;;;;;;;;5080079;28;20407;-65
2020/12/03 09:31:13;;;;;;;52.07;32.53;;;;;;;;;;5080112;28;20455;-66
2020/12/03 09:33:43;;;;;;;47.93;30.93;;;;;;;;;;5080386;28;20494;-66
2020/12/03 09:36:10;;;;;;;48.00;29.90;;;;;;;;;;5079942;28;20176;-66
2020/12/03 09:38:35;;;;;;;50.93;30.87;;;;;;;;;;5080117;28;20398;-66
2020/12/03 09:41:00;;;;;;;51.53;30.60;;;;;;;;;;5080362;28;20486;-65
2020/12/03 09:43:26;;;;;;;57.53;34.77;;;;;;;;;;5080069;28;20172;-66
2020/12/03 09:45:53;;;;;;;50.43;31.13;;;;;;;;;;5079896;28;20177;-66
2020/12/03 09:48:19;;;;;;;51.67;32.77;;;;;;;;;;5080162;28;20402;-66
2020/12/03 09:50:44;;;;;;;51.70;32.70;;;;;;;;;;5079653;28;20805;-65
2020/12/03 09:53:14;;;;;;;51.50;32.20;;;;;;;;;;5079994;28;20395;-64
2020/12/03 09:55:39;;;;;;;48.77;31.40;;;;;;;;;;5079916;28;20402;-64
2020/12/03 09:58:04;;;;;;;57.70;33.93;;;;;;;;;;5079632;28;20403;-64
2020/12/03 10:00:34;;;;;;;50.10;33.20;;;;;;;;;;5079634;28;20554;-65
2020/12/03 10:03:26;;;;;;;51.53;33.90;;;;;;;;;;5079933;28;20165;-65
2020/12/03 10:05:59;;;;;;;57.17;34.67;;;;;;;;;;5079714;28;20414;-64
2020/12/03 10:08:44;;;;;;;49.40;31.13;;;;;;;;;;5079268;28;20418;-66
2020/12/03 10:11:28;;;;;;;49.70;33.10;;;;;;;;;;5078261;28;20864;-65
2020/12/03 10:14:11;;;;;;;50.10;32.17;;;;;;;;;;5079349;28;20407;-65
2020/12/03 10:16:39;;;;;;;52.63;33.13;;;;;;;;;;5079228;28;20553;-68
2020/12/03 10:19:05;;;;;;;50.37;31.83;;;;;;;;;;5079174;28;20399;-66
2020/12/03 10:21:32;;;;;;;48.90;32.30;;;;;;;;;;5079343;28;20403;-65
2020/12/03 10:24:02;;;;;;;54.00;31.70;;;;;;;;;;5079140;28;20870;-66
2020/12/03 10:26:32;;;;;;;53.97;32.73;;;;;;;;;;5079276;28;20427;-66
2020/12/03 10:29:15;;;;;;;50.40;31.60;;;;;;;;;;5078226;28;20403;-66
2020/12/03 10:31:44;;;;;;;50.90;31.20;;;;;;;;;;5079331;28;20935;-66
2020/12/03 10:34:13;;;;;;;53.40;30.50;;;;;;;;;;5079153;28;20788;-65
2020/12/03 10:36:54;;;;;;;45.27;27.53;;;;;;;;;;5079244;28;20402;-65
2020/12/03 10:39:19;;;;;;;51.10;31.30;;;;;;;;;;5080476;28;20524;-68
2020/12/03 10:41:52;;;;;;;51.80;31.47;;;;;;;;;;5080756;28;20415;-66
2020/12/03 10:44:19;;;;;;;47.27;30.87;;;;;;;;;;5079797;28;20776;-66
2020/12/03 10:46:48;;;;;;;46.40;30.30;;;;;;;;;;5078879;28;20484;-66
2020/12/03 10:49:15;;;;;;;44.87;27.80;;;;;;;;;;5078847;28;20403;-66
2020/12/03 10:51:41;;;;;;;45.77;29.00;;;;;;;;;;5078773;28;20473;-67
2020/12/03 10:54:06;;;;;;;46.30;28.80;;;;;;;;;;5079069;28;20419;-65
2020/12/03 10:56:36;;;;;;;45.27;29.87;;;;;;;;;;5078564;28;20506;-66
2020/12/03 10:59:08;;;;;;;51.30;32.07;;;;;;;;;;5078465;28;20504;-64
2020/12/03 11:01:34;;;;;;;45.03;27.70;;;;;;;;;;5078686;28;20433;-66
2020/12/03 11:04:03;;;;;;;44.17;26.70;;;;;;;;;;5078667;28;20403;-65
2020/12/03 11:06:29;;;;;;;44.13;28.90;;;;;;;;;;5078633;28;20498;-65
2020/12/03 11:08:58;;;;;;;43.90;27.50;;;;;;;;;;5078142;28;20501;-64
2020/12/03 11:11:23;;;;;;;45.93;28.80;;;;;;;;;;5078384;28;20193;-65
2020/12/03 11:13:49;;;;;;;44.83;28.67;;;;;;;;;;5078408;28;20785;-65
2020/12/03 11:16:21;;;;;;;40.53;28.53;;;;;;;;;;5078171;28;20172;-66
2020/12/03 11:18:47;;;;;;;50.10;30.70;;;;;;;;;;5078069;28;20173;-67
2020/12/03 11:21:21;;;;;;;43.73;28.97;;;;;;;;;;5078385;28;20403;-65
2020/12/03 11:23:49;;;;;;;37.57;25.90;;;;;;;;;;5077936;28;20830;-65
2020/12/03 11:26:14;;;;;;;40.53;27.17;;;;;;;;;;5076360;28;20742;-66
2020/12/03 11:28:40;;;;;;;43.80;28.47;;;;;;;;;;5078082;28;20476;-66
2020/12/03 11:31:06;;;;;;;44.83;28.87;;;;;;;;;;5077486;28;20600;-66
2020/12/03 11:33:36;;;;;;;42.93;27.00;;;;;;;;;;5077675;28;20165;-65
2020/12/03 11:36:11;;;;;;;40.33;27.27;;;;;;;;;;5077848;28;20410;-65
2020/12/03 11:38:38;;;;;;;42.00;27.47;;;;;;;;;;5077705;28;20406;-65
2020/12/03 11:41:12;;;;;;;46.23;28.40;;;;;;;;;;5077777;28;20431;-66
2020/12/03 11:48:55;;;;;;;41.40;27.70;;;;;;;;;;5076235;28;20180;-65
2020/12/03 11:51:30;;;;;;;44.33;26.80;;;;;;;;;;5077303;28;20533;-63
2020/12/03 11:53:56;;;;;;;41.33;27.30;;;;;;;;;;5077496;28;20406;-65
2020/12/03 11:56:21;;;;;;;43.40;27.53;;;;;;;;;;5077596;28;20468;-66
2020/12/03 11:58:46;;;;;;;39.60;27.37;;;;;;;;;;5077735;28;20906;-65
2020/12/03 12:01:12;;;;;;;42.97;28.05;;;;;;;;;;5077355;28;20169;-66
2020/12/03 12:03:40;;;;;;;44.80;28.17;;;;;;;;;;5077522;28;20176;-65
2020/12/03 12:06:12;;;;;;;41.23;26.30;;;;;;;;;;5077294;28;20395;-67
2020/12/03 12:08:43;;;;;;;38.90;25.83;;;;;;;;;;5077148;28;20478;-67
2020/12/03 12:13:36;;;;;;;40.53;27.40;;;;;;;;;;5077329;28;20438;-67
2020/12/03 12:16:01;;;;;;;37.40;25.50;;;;;;;;;;5077265;28;20434;-66
2020/12/03 12:18:27;;;;;;;39.70;26.50;;;;;;;;;;5077386;28;20530;-68
2020/12/03 12:20:52;;;;;;;40.50;27.53;;;;;;;;;;5076778;28;20156;-66
2020/12/03 12:23:17;;;;;;;40.77;28.30;;;;;;;;;;5077247;28;20211;-67
2020/12/03 12:25:42;;;;;;;39.30;24.23;;;;;;;;;;5077404;28;20165;-67
2020/12/03 12:28:07;;;;;;;40.13;27.40;;;;;;;;;;5076901;28;20427;-66
2020/12/03 12:30:33;;;;;;;40.83;26.13;;;;;;;;;;5077079;28;20149;-66
2020/12/03 12:33:05;;;;;;;43.00;24.60;;;;;;;;;;5070551;28;20618;-66
2020/12/03 12:35:30;;;;;;;40.27;25.80;;;;;;;;;;5055440;28;20170;-67
2020/12/03 12:37:56;;;;;;;36.53;25.77;;;;;;;;;;5056460;28;20407;-66
2020/12/03 12:40:22;;;;;;;35.67;23.90;;;;;;;;;;5057152;28;20161;-66
2020/12/03 12:42:47;;;;;;;35.63;24.43;;;;;;;;;;5056832;28;20704;-64
2020/12/03 12:45:12;;;;;;;36.53;24.63;;;;;;;;;;5057031;28;20180;-65
2020/12/03 12:47:38;;;;;;;34.37;22.20;;;;;;;;;;5056858;28;20171;-65
2020/12/03 12:50:04;;;;;;;38.70;25.30;;;;;;;;;;5057477;28;20158;-65
2020/12/03 12:52:29;;;;;;;34.17;22.60;;;;;;;;;;5056912;28;20601;-65
2020/12/03 12:54:54;;;;;;;35.67;23.73;;;;;;;;;;5056821;28;20404;-65
2020/12/03 12:57:20;;;;;;;39.67;26.13;;;;;;;;;;5056464;28;20165;-65
2020/12/03 12:59:45;;;;;;;38.47;26.23;;;;;;;;;;5056584;28;20206;-65
2020/12/03 13:02:11;;;;;;;38.20;25.07;;;;;;;;;;5056837;28;20197;-65
2020/12/03 13:04:36;;;;;;;37.80;26.03;;;;;;;;;;5062170;28;20185;-65
2020/12/03 13:07:05;;;;;;;39.50;26.20;;;;;;;;;;5075118;28;20215;-65
2020/12/03 13:09:32;;;;;;;38.20;25.90;;;;;;;;;;5075577;28;20232;-66
2020/12/03 13:11:57;;;;;;;35.47;24.90;;;;;;;;;;5075363;28;20462;-66
2020/12/03 13:14:25;;;;;;;36.60;23.83;;;;;;;;;;5075812;28;20769;-64
2020/12/03 13:16:51;;;;;;;37.00;24.63;;;;;;;;;;5075054;28;20176;-64
2020/12/03 13:19:16;;;;;;;36.90;24.37;;;;;;;;;;5075776;28;20472;-65
2020/12/03 13:21:42;;;;;;;32.67;21.80;;;;;;;;;;5076129;28;20216;-65
2020/12/03 13:24:08;;;;;;;33.93;23.40;;;;;;;;;;5075970;28;20412;-65
2020/12/03 13:26:34;;;;;;;37.23;21.37;;;;;;;;;;5076095;28;20453;-64
2020/12/03 13:29:00;;;;;;;33.27;23.47;;;;;;;;;;5076275;28;20165;-63
2020/12/03 13:31:27;;;;;;;34.60;23.83;;;;;;;;;;5075344;28;20465;-67
2020/12/03 13:33:53;;;;;;;35.33;24.47;;;;;;;;;;5075463;28;20180;-66
2020/12/03 13:36:26;;;;;;;32.33;21.83;;;;;;;;;;5075618;28;20410;-65
2020/12/03 13:38:55;;;;;;;36.80;24.20;;;;;;;;;;5075873;28;20419;-63
2020/12/03 13:41:21;;;;;;;38.37;24.50;;;;;;;;;;5075745;28;20390;-63
2020/12/03 13:43:47;;;;;;;32.13;23.40;;;;;;;;;;5075735;28;20165;-63
2020/12/03 13:46:15;;;;;;;37.10;23.47;;;;;;;;;;5076968;28;20623;-66
2020/12/03 13:48:41;;;;;;;35.63;23.20;;;;;;;;;;5078336;28;20813;-65
2020/12/03 13:51:08;;;;;;;32.30;22.10;;;;;;;;;;5078774;28;20588;-65
2020/12/03 13:53:33;;;;;;;34.40;20.87;;;;;;;;;;5078222;28;20523;-65
2020/12/03 13:55:59;;;;;;;40.43;25.40;;;;;;;;;;5079095;28;20399;-64
2020/12/03 13:58:24;;;;;;;35.83;24.10;;;;;;;;;;5079114;28;20165;-64
2020/12/03 14:00:53;;;;;;;33.30;23.00;;;;;;;;;;5077850;28;20539;-66
2020/12/03 14:03:19;;;;;;;34.43;22.33;;;;;;;;;;5078146;28;20247;-67
2020/12/03 14:05:44;;;;;;;30.67;20.10;;;;;;;;;;5078511;28;20485;-66
2020/12/03 14:08:09;;;;;;;31.45;21.20;;;;;;;;;;5078091;28;20538;-66
2020/12/03 14:10:34;;;;;;;31.00;20.80;;;;;;;;;;5077814;28;20223;-67
2020/12/03 14:13:00;;;;;;;30.37;21.03;;;;;;;;;;5078509;28;20211;-66
2020/12/03 14:15:25;;;;;;;34.80;22.30;;;;;;;;;;5078350;28;20594;-65
2020/12/03 14:17:50;;;;;;;33.30;20.70;;;;;;;;;;5078198;28;20207;-66
2020/12/03 14:20:18;;;;;;;31.17;21.10;;;;;;;;;;5078032;28;20153;-67
2020/12/03 14:22:43;;;;;;;31.00;18.40;;;;;;;;;;5077515;28;20177;-66
2020/12/03 14:25:08;;;;;;;30.63;20.03;;;;;;;;;;5077933;28;20407;-67
2020/12/03 14:27:33;;;;;;;31.43;21.80;;;;;;;;;;5078186;28;20157;-64
2020/12/03 14:29:59;;;;;;;29.77;22.40;;;;;;;;;;5078082;28;20165;-63
2020/12/03 14:32:26;;;;;;;28.70;19.40;;;;;;;;;;5077832;28;20247;-65